首页
METAR-TAF:

METAR-TAF

机场 :

維泰博, 意大利

纬度: 42-26N, 经度: 012-03E, 海拔: 300米

当前天气观测

该预报发布于1小时和8分钟前的11:55 UTC
风速5节,风向东北
温度 19°C
湿度 30%
气压 1026 hPa
能见度10公里或以上
1500米以下无云,无积雨云

METAR: LIRV 071155Z 05005KT CAVOK 19/01 Q1026 RMK SKC MON E SE LIB NC VIS MIN 9999 WIND THR04 ///// KT BLU

时间: 15:03 (13:03 UTC)

预报

该预报发布于2小时和3分钟前的11:00 UTC
预报有效从07日的 12点(UTC)到 07日的 21点(UTC)
风速3节,风向多变
能见度10公里或以上
少量云层高于3000英尺
短暂存在
从 07日的 12点(UTC)到 07日的 16点(UTC)
风速10节,风向西转西南

TAF: LIRV 071100Z 0712/0721 VRB03KT 9999 FEW030 TEMPO 0712/0716 24010KT

超过4000个机场的气象观测和天气预报(METAR&TAF报告)。

可查询的气象台以黄色和红色小点在地图上表示。

将鼠标移到小点上方,可查看气象台名称。

然后点击查看天气观测和预报。

如需切换地图:点击带黑十字的绿色按钮放大地图;点击带横线的绿色按钮缩小地图;或者点击绿色箭头查看邻近地区的地图。


METAR-TAF: